sensor_id;sensor_type;location;lat;lon;timestamp;temperature;humidity
13673;DHT22;6909;52.202;9.876;2023-09-19T00:00:30;15.50;99.90
13673;DHT22;6909;52.202;9.876;2023-09-19T00:02:59;15.50;99.90
13673;DHT22;6909;52.202;9.876;2023-09-19T00:05:28;15.60;99.90
13673;DHT22;6909;52.202;9.876;2023-09-19T00:07:56;15.60;99.90
13673;DHT22;6909;52.202;9.876;2023-09-19T00:10:24;15.60;99.90
13673;DHT22;6909;52.202;9.876;2023-09-19T00:12:52;15.60;99.90
13673;DHT22;6909;52.202;9.876;2023-09-19T00:15:20;15.60;99.90
13673;DHT22;6909;52.202;9.876;2023-09-19T00:17:47;15.60;99.90
13673;DHT22;6909;52.202;9.876;2023-09-19T00:20:17;15.60;99.90
13673;DHT22;6909;52.202;9.876;2023-09-19T00:22:48;15.60;99.90
13673;DHT22;6909;52.202;9.876;2023-09-19T00:25:15;15.60;99.90
13673;DHT22;6909;52.202;9.876;2023-09-19T00:27:42;15.60;99.90
13673;DHT22;6909;52.202;9.876;2023-09-19T00:30:12;15.60;99.90
13673;DHT22;6909;52.202;9.876;2023-09-19T00:32:41;15.60;99.90
13673;DHT22;6909;52.202;9.876;2023-09-19T00:35:08;15.60;99.90
13673;DHT22;6909;52.202;9.876;2023-09-19T00:37:36;15.60;99.90
13673;DHT22;6909;52.202;9.876;2023-09-19T00:40:05;15.70;99.90
13673;DHT22;6909;52.202;9.876;2023-09-19T00:42:37;15.70;99.90
13673;DHT22;6909;52.202;9.876;2023-09-19T00:45:05;15.80;99.90
13673;DHT22;6909;52.202;9.876;2023-09-19T00:47:35;15.80;99.90
13673;DHT22;6909;52.202;9.876;2023-09-19T00:50:03;15.80;99.90
13673;DHT22;6909;52.202;9.876;2023-09-19T00:52:33;15.80;99.90
13673;DHT22;6909;52.202;9.876;2023-09-19T00:55:03;15.70;99.90
13673;DHT22;6909;52.202;9.876;2023-09-19T00:57:31;15.70;99.90
13673;DHT22;6909;52.202;9.876;2023-09-19T01:00:00;15.80;99.90
13673;DHT22;6909;52.202;9.876;2023-09-19T01:02:31;15.80;99.90
13673;DHT22;6909;52.202;9.876;2023-09-19T01:04:58;15.80;99.90
13673;DHT22;6909;52.202;9.876;2023-09-19T01:07:25;15.80;99.90
13673;DHT22;6909;52.202;9.876;2023-09-19T01:09:52;15.70;99.90
13673;DHT22;6909;52.202;9.876;2023-09-19T01:12:26;15.80;99.90
13673;DHT22;6909;52.202;9.876;2023-09-19T01:15:01;15.80;99.90
13673;DHT22;6909;52.202;9.876;2023-09-19T01:17:34;15.80;99.90
13673;DHT22;6909;52.202;9.876;2023-09-19T01:20:24;15.80;99.90
13673;DHT22;6909;52.202;9.876;2023-09-19T01:23:00;15.80;99.90
13673;DHT22;6909;52.202;9.876;2023-09-19T01:26:07;15.80;99.90
13673;DHT22;6909;52.202;9.876;2023-09-19T01:28:55;15.70;99.90
13673;DHT22;6909;52.202;9.876;2023-09-19T01:31:33;15.70;99.90
13673;DHT22;6909;52.202;9.876;2023-09-19T01:34:02;15.60;99.90
13673;DHT22;6909;52.202;9.876;2023-09-19T01:36:31;15.60;99.90
13673;DHT22;6909;52.202;9.876;2023-09-19T01:39:00;15.60;99.90
13673;DHT22;6909;52.202;9.876;2023-09-19T01:41:46;15.60;99.90
13673;DHT22;6909;52.202;9.876;2023-09-19T01:44:19;15.70;99.90
13673;DHT22;6909;52.202;9.876;2023-09-19T01:46:50;15.70;99.90
13673;DHT22;6909;52.202;9.876;2023-09-19T01:49:22;15.70;99.90
13673;DHT22;6909;52.202;9.876;2023-09-19T01:51:59;15.80;99.90
13673;DHT22;6909;52.202;9.876;2023-09-19T01:54:33;15.90;99.90
13673;DHT22;6909;52.202;9.876;2023-09-19T01:57:13;16.00;99.90
13673;DHT22;6909;52.202;9.876;2023-09-19T01:59:48;16.00;99.90
13673;DHT22;6909;52.202;9.876;2023-09-19T02:02:17;16.10;99.90
13673;DHT22;6909;52.202;9.876;2023-09-19T02:04:44;16.10;99.90
13673;DHT22;6909;52.202;9.876;2023-09-19T02:07:10;16.10;99.90
13673;DHT22;6909;52.202;9.876;2023-09-19T02:09:37;16.10;99.90
13673;DHT22;6909;52.202;9.876;2023-09-19T02:12:05;16.00;99.90
13673;DHT22;6909;52.202;9.876;2023-09-19T02:14:32;16.00;99.90
13673;DHT22;6909;52.202;9.876;2023-09-19T02:17:01;16.00;99.90
13673;DHT22;6909;52.202;9.876;2023-09-19T02:19:30;16.00;99.90
13673;DHT22;6909;52.202;9.876;2023-09-19T02:21:59;16.00;99.90
13673;DHT22;6909;52.202;9.876;2023-09-19T02:24:28;16.10;99.90
13673;DHT22;6909;52.202;9.876;2023-09-19T02:26:55;16.10;99.90
13673;DHT22;6909;52.202;9.876;2023-09-19T02:29:22;16.10;99.90
13673;DHT22;6909;52.202;9.876;2023-09-19T02:31:50;16.10;93.90
13673;DHT22;6909;52.202;9.876;2023-09-19T02:34:17;16.20;35.40
13673;DHT22;6909;52.202;9.876;2023-09-19T02:36:44;16.20;1.00
13673;DHT22;6909;52.202;9.876;2023-09-19T02:39:12;16.20;1.00
13673;DHT22;6909;52.202;9.876;2023-09-19T02:41:39;16.30;99.90
13673;DHT22;6909;52.202;9.876;2023-09-19T02:44:07;16.30;99.90
13673;DHT22;6909;52.202;9.876;2023-09-19T02:46:34;16.30;99.90
13673;DHT22;6909;52.202;9.876;2023-09-19T02:49:01;16.30;99.90
13673;DHT22;6909;52.202;9.876;2023-09-19T02:51:30;16.10;99.90
13673;DHT22;6909;52.202;9.876;2023-09-19T02:53:59;16.00;99.90
13673;DHT22;6909;52.202;9.876;2023-09-19T02:56:26;15.90;1.00
13673;DHT22;6909;52.202;9.876;2023-09-19T02:58:53;15.80;1.00
13673;DHT22;6909;52.202;9.876;2023-09-19T03:01:20;15.80;1.00
13673;DHT22;6909;52.202;9.876;2023-09-19T03:03:47;15.80;1.00
13673;DHT22;6909;52.202;9.876;2023-09-19T03:06:14;15.80;1.00
13673;DHT22;6909;52.202;9.876;2023-09-19T03:08:41;15.80;1.00
13673;DHT22;6909;52.202;9.876;2023-09-19T03:11:10;15.70;1.00
13673;DHT22;6909;52.202;9.876;2023-09-19T03:13:38;15.70;76.70
13673;DHT22;6909;52.202;9.876;2023-09-19T03:16:05;15.70;43.20
13673;DHT22;6909;52.202;9.876;2023-09-19T03:18:33;15.60;19.80
13673;DHT22;6909;52.202;9.876;2023-09-19T03:21:00;15.60;13.50
13673;DHT22;6909;52.202;9.876;2023-09-19T03:23:27;15.60;1.00
13673;DHT22;6909;52.202;9.876;2023-09-19T03:25:54;15.50;1.00
13673;DHT22;6909;52.202;9.876;2023-09-19T03:28:22;15.50;1.00
13673;DHT22;6909;52.202;9.876;2023-09-19T03:31:00;15.50;1.00
13673;DHT22;6909;52.202;9.876;2023-09-19T03:33:27;15.50;1.00
13673;DHT22;6909;52.202;9.876;2023-09-19T03:35:56;15.50;1.00
13673;DHT22;6909;52.202;9.876;2023-09-19T03:38:24;15.60;1.00
13673;DHT22;6909;52.202;9.876;2023-09-19T03:40:51;15.70;1.00
13673;DHT22;6909;52.202;9.876;2023-09-19T03:43:18;15.60;62.70
13673;DHT22;6909;52.202;9.876;2023-09-19T03:45:46;15.60;1.00
13673;DHT22;6909;52.202;9.876;2023-09-19T03:48:14;15.50;1.00
13673;DHT22;6909;52.202;9.876;2023-09-19T03:50:41;15.40;1.00
13673;DHT22;6909;52.202;9.876;2023-09-19T03:53:09;15.40;1.00
13673;DHT22;6909;52.202;9.876;2023-09-19T03:55:36;15.40;1.00
13673;DHT22;6909;52.202;9.876;2023-09-19T03:58:04;15.30;1.00
13673;DHT22;6909;52.202;9.876;2023-09-19T04:00:31;15.40;99.90
13673;DHT22;6909;52.202;9.876;2023-09-19T04:03:01;15.30;1.00
13673;DHT22;6909;52.202;9.876;2023-09-19T04:05:31;15.30;1.00
13673;DHT22;6909;52.202;9.876;2023-09-19T04:07:58;15.20;1.00
13673;DHT22;6909;52.202;9.876;2023-09-19T04:10:25;15.20;6.80
13673;DHT22;6909;52.202;9.876;2023-09-19T04:12:51;15.10;1.00
13673;DHT22;6909;52.202;9.876;2023-09-19T04:15:19;15.10;1.00
13673;DHT22;6909;52.202;9.876;2023-09-19T04:17:47;15.10;1.00
13673;DHT22;6909;52.202;9.876;2023-09-19T04:20:16;15.00;99.90
13673;DHT22;6909;52.202;9.876;2023-09-19T04:22:44;15.10;99.90
13673;DHT22;6909;52.202;9.876;2023-09-19T04:25:10;15.00;99.90
13673;DHT22;6909;52.202;9.876;2023-09-19T04:27:37;15.00;1.70
13673;DHT22;6909;52.202;9.876;2023-09-19T04:30:05;15.00;1.00
13673;DHT22;6909;52.202;9.876;2023-09-19T04:32:35;15.00;1.00
13673;DHT22;6909;52.202;9.876;2023-09-19T04:35:04;14.90;10.60
13673;DHT22;6909;52.202;9.876;2023-09-19T04:37:33;14.80;82.70
13673;DHT22;6909;52.202;9.876;2023-09-19T04:40:00;14.80;99.90
13673;DHT22;6909;52.202;9.876;2023-09-19T04:42:45;14.70;99.90
13673;DHT22;6909;52.202;9.876;2023-09-19T04:45:22;14.70;14.30
13673;DHT22;6909;52.202;9.876;2023-09-19T04:47:49;14.70;1.00
13673;DHT22;6909;52.202;9.876;2023-09-19T04:50:16;14.70;99.90
13673;DHT22;6909;52.202;9.876;2023-09-19T04:52:44;14.70;99.90
13673;DHT22;6909;52.202;9.876;2023-09-19T04:55:11;14.70;99.90
13673;DHT22;6909;52.202;9.876;2023-09-19T04:57:41;14.70;99.90
13673;DHT22;6909;52.202;9.876;2023-09-19T05:00:09;14.60;99.90
13673;DHT22;6909;52.202;9.876;2023-09-19T05:02:38;14.60;99.90
13673;DHT22;6909;52.202;9.876;2023-09-19T05:05:06;14.60;1.00
13673;DHT22;6909;52.202;9.876;2023-09-19T05:07:33;14.60;99.90
13673;DHT22;6909;52.202;9.876;2023-09-19T05:10:02;14.70;99.90
13673;DHT22;6909;52.202;9.876;2023-09-19T05:12:31;14.70;93.60
13673;DHT22;6909;52.202;9.876;2023-09-19T05:14:58;14.70;99.90
13673;DHT22;6909;52.202;9.876;2023-09-19T05:17:26;14.60;1.00
13673;DHT22;6909;52.202;9.876;2023-09-19T05:19:53;14.60;1.00
13673;DHT22;6909;52.202;9.876;2023-09-19T05:22:20;14.60;1.00
13673;DHT22;6909;52.202;9.876;2023-09-19T05:24:47;14.50;1.00
13673;DHT22;6909;52.202;9.876;2023-09-19T05:27:15;14.60;1.00
13673;DHT22;6909;52.202;9.876;2023-09-19T05:29:43;14.60;1.00
13673;DHT22;6909;52.202;9.876;2023-09-19T05:32:10;14.60;99.90
13673;DHT22;6909;52.202;9.876;2023-09-19T05:34:37;14.60;1.00
13673;DHT22;6909;52.202;9.876;2023-09-19T05:37:04;14.70;1.00
13673;DHT22;6909;52.202;9.876;2023-09-19T05:39:32;14.70;1.00
13673;DHT22;6909;52.202;9.876;2023-09-19T05:41:59;14.70;1.00
13673;DHT22;6909;52.202;9.876;2023-09-19T05:44:27;14.70;1.00
13673;DHT22;6909;52.202;9.876;2023-09-19T05:46:54;14.80;99.90
13673;DHT22;6909;52.202;9.876;2023-09-19T05:49:22;14.80;1.00
13673;DHT22;6909;52.202;9.876;2023-09-19T05:51:50;14.70;1.00
13673;DHT22;6909;52.202;9.876;2023-09-19T05:54:19;14.80;8.10
13673;DHT22;6909;52.202;9.876;2023-09-19T05:56:46;14.90;1.00
13673;DHT22;6909;52.202;9.876;2023-09-19T05:59:14;14.90;1.00
13673;DHT22;6909;52.202;9.876;2023-09-19T06:01:43;15.10;1.00
13673;DHT22;6909;52.202;9.876;2023-09-19T06:04:09;15.30;1.00
13673;DHT22;6909;52.202;9.876;2023-09-19T06:06:36;16.00;1.00
13673;DHT22;6909;52.202;9.876;2023-09-19T06:09:04;16.80;1.00
13673;DHT22;6909;52.202;9.876;2023-09-19T06:11:32;17.40;20.10
13673;DHT22;6909;52.202;9.876;2023-09-19T06:14:00;18.40;1.00
13673;DHT22;6909;52.202;9.876;2023-09-19T06:16:27;18.20;97.40
13673;DHT22;6909;52.202;9.876;2023-09-19T06:18:55;17.80;1.00
13673;DHT22;6909;52.202;9.876;2023-09-19T06:21:22;16.90;1.00
13673;DHT22;6909;52.202;9.876;2023-09-19T06:23:49;16.50;1.00
13673;DHT22;6909;52.202;9.876;2023-09-19T06:26:16;17.00;99.90
13673;DHT22;6909;52.202;9.876;2023-09-19T06:28:43;17.60;1.00
13673;DHT22;6909;52.202;9.876;2023-09-19T06:31:10;18.60;1.00
13673;DHT22;6909;52.202;9.876;2023-09-19T06:33:37;19.10;99.90
13673;DHT22;6909;52.202;9.876;2023-09-19T06:36:06;18.80;1.00
13673;DHT22;6909;52.202;9.876;2023-09-19T06:38:33;19.50;1.00
13673;DHT22;6909;52.202;9.876;2023-09-19T06:41:01;20.20;1.00
13673;DHT22;6909;52.202;9.876;2023-09-19T06:43:30;20.30;1.00
13673;DHT22;6909;52.202;9.876;2023-09-19T06:45:58;20.80;99.90
13673;DHT22;6909;52.202;9.876;2023-09-19T06:48:25;21.00;99.90
13673;DHT22;6909;52.202;9.876;2023-09-19T06:50:53;20.40;1.00
13673;DHT22;6909;52.202;9.876;2023-09-19T06:53:21;21.30;1.00
13673;DHT22;6909;52.202;9.876;2023-09-19T06:55:49;20.50;1.00
13673;DHT22;6909;52.202;9.876;2023-09-19T06:58:15;21.30;1.00
13673;DHT22;6909;52.202;9.876;2023-09-19T07:00:43;21.90;1.00
13673;DHT22;6909;52.202;9.876;2023-09-19T07:03:10;23.10;1.00
13673;DHT22;6909;52.202;9.876;2023-09-19T07:05:38;22.60;99.90
13673;DHT22;6909;52.202;9.876;2023-09-19T07:08:05;23.30;99.90
13673;DHT22;6909;52.202;9.876;2023-09-19T07:10:34;24.40;49.70
13673;DHT22;6909;52.202;9.876;2023-09-19T07:13:02;23.20;1.00
13673;DHT22;6909;52.202;9.876;2023-09-19T07:15:31;23.00;1.00
13673;DHT22;6909;52.202;9.876;2023-09-19T07:18:01;23.50;1.00
13673;DHT22;6909;52.202;9.876;2023-09-19T07:20:27;22.60;1.00
13673;DHT22;6909;52.202;9.876;2023-09-19T07:22:57;22.80;1.00
13673;DHT22;6909;52.202;9.876;2023-09-19T07:25:25;21.80;1.00
13673;DHT22;6909;52.202;9.876;2023-09-19T07:27:55;21.70;1.00
13673;DHT22;6909;52.202;9.876;2023-09-19T07:30:22;22.30;99.90
13673;DHT22;6909;52.202;9.876;2023-09-19T07:32:48;23.40;99.90
13673;DHT22;6909;52.202;9.876;2023-09-19T07:35:15;23.30;99.90
13673;DHT22;6909;52.202;9.876;2023-09-19T07:37:44;22.60;99.90
13673;DHT22;6909;52.202;9.876;2023-09-19T07:40:14;21.40;99.90
13673;DHT22;6909;52.202;9.876;2023-09-19T07:42:41;20.80;99.90
13673;DHT22;6909;52.202;9.876;2023-09-19T07:45:11;20.70;99.90
13673;DHT22;6909;52.202;9.876;2023-09-19T07:47:40;20.20;99.90
13673;DHT22;6909;52.202;9.876;2023-09-19T07:50:06;19.60;99.90
13673;DHT22;6909;52.202;9.876;2023-09-19T07:52:33;19.30;99.90
13673;DHT22;6909;52.202;9.876;2023-09-19T07:55:00;19.00;99.90
13673;DHT22;6909;52.202;9.876;2023-09-19T07:57:31;18.80;1.00
13673;DHT22;6909;52.202;9.876;2023-09-19T08:00:00;18.50;99.90
13673;DHT22;6909;52.202;9.876;2023-09-19T08:02:28;18.40;99.90
13673;DHT22;6909;52.202;9.876;2023-09-19T08:04:54;17.90;1.00
13673;DHT22;6909;52.202;9.876;2023-09-19T08:07:23;17.90;1.00
13673;DHT22;6909;52.202;9.876;2023-09-19T08:09:49;17.90;1.00
13673;DHT22;6909;52.202;9.876;2023-09-19T08:12:16;17.80;1.00
13673;DHT22;6909;52.202;9.876;2023-09-19T08:14:45;17.90;1.00
13673;DHT22;6909;52.202;9.876;2023-09-19T08:17:12;17.80;1.00
13673;DHT22;6909;52.202;9.876;2023-09-19T08:19:40;17.80;1.00
13673;DHT22;6909;52.202;9.876;2023-09-19T08:22:10;18.20;1.00
13673;DHT22;6909;52.202;9.876;2023-09-19T08:24:37;18.30;1.00
13673;DHT22;6909;52.202;9.876;2023-09-19T08:27:04;18.20;1.00
13673;DHT22;6909;52.202;9.876;2023-09-19T08:29:34;18.20;1.00
13673;DHT22;6909;52.202;9.876;2023-09-19T08:32:00;18.40;1.00
13673;DHT22;6909;52.202;9.876;2023-09-19T08:34:27;18.70;1.00
13673;DHT22;6909;52.202;9.876;2023-09-19T08:36:59;18.80;1.00
13673;DHT22;6909;52.202;9.876;2023-09-19T08:39:26;18.80;1.00
13673;DHT22;6909;52.202;9.876;2023-09-19T08:41:57;18.80;1.00
13673;DHT22;6909;52.202;9.876;2023-09-19T08:44:24;19.00;1.00
13673;DHT22;6909;52.202;9.876;2023-09-19T08:46:55;19.10;1.00
13673;DHT22;6909;52.202;9.876;2023-09-19T08:49:27;19.10;1.00
13673;DHT22;6909;52.202;9.876;2023-09-19T08:52:05;19.30;99.90
13673;DHT22;6909;52.202;9.876;2023-09-19T08:54:36;19.10;99.90
13673;DHT22;6909;52.202;9.876;2023-09-19T08:57:07;19.30;1.00
13673;DHT22;6909;52.202;9.876;2023-09-19T08:59:38;19.30;99.90
13673;DHT22;6909;52.202;9.876;2023-09-19T09:02:09;19.10;99.90
13673;DHT22;6909;52.202;9.876;2023-09-19T09:04:39;19.00;99.90
13673;DHT22;6909;52.202;9.876;2023-09-19T09:07:10;18.90;99.90
13673;DHT22;6909;52.202;9.876;2023-09-19T09:09:38;18.90;1.00
13673;DHT22;6909;52.202;9.876;2023-09-19T09:12:08;18.80;1.00
13673;DHT22;6909;52.202;9.876;2023-09-19T09:14:35;18.60;1.00
13673;DHT22;6909;52.202;9.876;2023-09-19T09:17:02;18.20;1.00
13673;DHT22;6909;52.202;9.876;2023-09-19T09:19:30;18.20;1.00
13673;DHT22;6909;52.202;9.876;2023-09-19T09:22:07;18.40;1.00
13673;DHT22;6909;52.202;9.876;2023-09-19T09:24:34;18.60;1.00
13673;DHT22;6909;52.202;9.876;2023-09-19T09:27:04;18.60;99.90
13673;DHT22;6909;52.202;9.876;2023-09-19T09:29:44;18.70;1.00
13673;DHT22;6909;52.202;9.876;2023-09-19T09:32:19;18.80;99.90
13673;DHT22;6909;52.202;9.876;2023-09-19T09:34:48;18.80;99.90
13673;DHT22;6909;52.202;9.876;2023-09-19T09:37:17;19.10;1.00
13673;DHT22;6909;52.202;9.876;2023-09-19T09:39:55;19.30;99.90
13673;DHT22;6909;52.202;9.876;2023-09-19T09:42:31;19.10;1.00
13673;DHT22;6909;52.202;9.876;2023-09-19T09:45:16;19.20;99.90
13673;DHT22;6909;52.202;9.876;2023-09-19T09:47:44;19.30;99.90
13673;DHT22;6909;52.202;9.876;2023-09-19T09:50:25;19.20;99.90
13673;DHT22;6909;52.202;9.876;2023-09-19T09:52:56;19.20;99.90
13673;DHT22;6909;52.202;9.876;2023-09-19T09:55:59;19.10;99.90
13673;DHT22;6909;52.202;9.876;2023-09-19T09:58:28;18.90;99.90
13673;DHT22;6909;52.202;9.876;2023-09-19T10:00:56;19.00;99.90
13673;DHT22;6909;52.202;9.876;2023-09-19T10:03:31;19.10;99.90
13673;DHT22;6909;52.202;9.876;2023-09-19T10:06:00;19.40;99.90
13673;DHT22;6909;52.202;9.876;2023-09-19T10:08:29;19.50;99.90
13673;DHT22;6909;52.202;9.876;2023-09-19T10:10:57;19.70;99.90
13673;DHT22;6909;52.202;9.876;2023-09-19T10:13:31;19.50;99.90
13673;DHT22;6909;52.202;9.876;2023-09-19T10:16:06;19.60;99.90
13673;DHT22;6909;52.202;9.876;2023-09-19T10:18:36;19.40;99.90
13673;DHT22;6909;52.202;9.876;2023-09-19T10:21:04;19.40;99.90
13673;DHT22;6909;52.202;9.876;2023-09-19T10:23:34;19.30;99.90
13673;DHT22;6909;52.202;9.876;2023-09-19T10:26:02;19.40;99.90
13673;DHT22;6909;52.202;9.876;2023-09-19T10:28:30;19.10;99.90
13673;DHT22;6909;52.202;9.876;2023-09-19T10:30:59;19.20;99.90
13673;DHT22;6909;52.202;9.876;2023-09-19T10:33:33;19.20;99.90
13673;DHT22;6909;52.202;9.876;2023-09-19T10:36:05;19.20;99.90
13673;DHT22;6909;52.202;9.876;2023-09-19T10:38:34;19.30;99.90
13673;DHT22;6909;52.202;9.876;2023-09-19T10:41:01;19.40;99.90
13673;DHT22;6909;52.202;9.876;2023-09-19T10:43:31;19.50;99.90
13673;DHT22;6909;52.202;9.876;2023-09-19T10:46:01;19.40;99.90
13673;DHT22;6909;52.202;9.876;2023-09-19T10:48:29;19.20;99.90
13673;DHT22;6909;52.202;9.876;2023-09-19T10:51:01;19.30;99.90
13673;DHT22;6909;52.202;9.876;2023-09-19T10:53:42;19.40;99.90
13673;DHT22;6909;52.202;9.876;2023-09-19T10:56:09;19.30;99.90
13673;DHT22;6909;52.202;9.876;2023-09-19T10:58:43;19.40;99.90
13673;DHT22;6909;52.202;9.876;2023-09-19T11:01:11;19.40;99.90
13673;DHT22;6909;52.202;9.876;2023-09-19T11:03:39;19.60;99.90
13673;DHT22;6909;52.202;9.876;2023-09-19T11:06:11;19.50;99.90
13673;DHT22;6909;52.202;9.876;2023-09-19T11:09:00;19.50;99.90
13673;DHT22;6909;52.202;9.876;2023-09-19T11:11:40;19.50;99.90
13673;DHT22;6909;52.202;9.876;2023-09-19T11:14:37;19.70;99.90
13673;DHT22;6909;52.202;9.876;2023-09-19T11:20:23;19.90;99.90
13673;DHT22;6909;52.202;9.876;2023-09-19T11:23:20;19.90;99.90
13673;DHT22;6909;52.202;9.876;2023-09-19T11:25:53;20.00;99.90
13673;DHT22;6909;52.202;9.876;2023-09-19T11:28:33;20.10;99.90
13673;DHT22;6909;52.202;9.876;2023-09-19T11:34:41;20.00;99.90
13673;DHT22;6909;52.202;9.876;2023-09-19T11:40:11;20.00;99.90
13673;DHT22;6909;52.202;9.876;2023-09-19T11:42:43;19.90;99.90
13673;DHT22;6909;52.202;9.876;2023-09-19T11:48:24;20.00;99.90
13673;DHT22;6909;52.202;9.876;2023-09-19T11:50:51;19.90;99.90
13673;DHT22;6909;52.202;9.876;2023-09-19T11:53:20;19.90;95.10
13673;DHT22;6909;52.202;9.876;2023-09-19T11:55:47;19.80;99.90
13673;DHT22;6909;52.202;9.876;2023-09-19T11:58:16;19.60;99.90
13673;DHT22;6909;52.202;9.876;2023-09-19T12:00:45;19.50;92.60
13673;DHT22;6909;52.202;9.876;2023-09-19T12:03:12;19.50;99.90
13673;DHT22;6909;52.202;9.876;2023-09-19T12:05:40;19.50;99.90
13673;DHT22;6909;52.202;9.876;2023-09-19T12:08:16;19.90;99.90
13673;DHT22;6909;52.202;9.876;2023-09-19T12:10:48;20.10;99.90
13673;DHT22;6909;52.202;9.876;2023-09-19T12:13:18;20.10;99.90
13673;DHT22;6909;52.202;9.876;2023-09-19T12:15:46;20.20;99.90
13673;DHT22;6909;52.202;9.876;2023-09-19T12:18:27;20.30;96.00
13673;DHT22;6909;52.202;9.876;2023-09-19T12:20:54;20.40;12.10
13673;DHT22;6909;52.202;9.876;2023-09-19T12:23:22;20.20;21.30
13673;DHT22;6909;52.202;9.876;2023-09-19T12:25:49;20.10;8.00
13673;DHT22;6909;52.202;9.876;2023-09-19T12:28:19;20.00;12.60
13673;DHT22;6909;52.202;9.876;2023-09-19T12:30:47;20.10;8.70
13673;DHT22;6909;52.202;9.876;2023-09-19T12:33:18;20.10;4.70
13673;DHT22;6909;52.202;9.876;2023-09-19T12:35:46;19.70;7.50
13673;DHT22;6909;52.202;9.876;2023-09-19T12:38:24;19.60;1.00
13673;DHT22;6909;52.202;9.876;2023-09-19T12:40:52;19.60;1.00
13673;DHT22;6909;52.202;9.876;2023-09-19T12:43:19;19.70;34.00
13673;DHT22;6909;52.202;9.876;2023-09-19T12:45:47;19.70;18.00
13673;DHT22;6909;52.202;9.876;2023-09-19T12:48:21;19.90;19.50
13673;DHT22;6909;52.202;9.876;2023-09-19T12:51:05;19.60;1.00
13673;DHT22;6909;52.202;9.876;2023-09-19T12:53:35;19.50;1.20
13673;DHT22;6909;52.202;9.876;2023-09-19T12:56:06;19.60;1.00
13673;DHT22;6909;52.202;9.876;2023-09-19T12:58:34;19.70;1.00
13673;DHT22;6909;52.202;9.876;2023-09-19T13:01:14;19.80;1.00
13673;DHT22;6909;52.202;9.876;2023-09-19T13:03:40;19.90;1.00
13673;DHT22;6909;52.202;9.876;2023-09-19T13:06:07;19.70;1.00
13673;DHT22;6909;52.202;9.876;2023-09-19T13:08:37;19.80;1.00
13673;DHT22;6909;52.202;9.876;2023-09-19T13:11:09;19.90;1.00
13673;DHT22;6909;52.202;9.876;2023-09-19T13:13:39;19.90;1.00
13673;DHT22;6909;52.202;9.876;2023-09-19T13:16:07;19.90;1.00
13673;DHT22;6909;52.202;9.876;2023-09-19T13:18:44;20.00;1.00
13673;DHT22;6909;52.202;9.876;2023-09-19T13:21:12;20.00;1.00
13673;DHT22;6909;52.202;9.876;2023-09-19T13:23:50;19.90;1.00
13673;DHT22;6909;52.202;9.876;2023-09-19T13:26:17;19.90;1.00
13673;DHT22;6909;52.202;9.876;2023-09-19T13:28:44;19.90;1.00
13673;DHT22;6909;52.202;9.876;2023-09-19T13:31:10;19.90;1.00
13673;DHT22;6909;52.202;9.876;2023-09-19T13:33:43;19.60;1.00
13673;DHT22;6909;52.202;9.876;2023-09-19T13:36:10;19.70;1.00
13673;DHT22;6909;52.202;9.876;2023-09-19T13:38:38;19.80;1.00
13673;DHT22;6909;52.202;9.876;2023-09-19T13:41:06;19.80;1.00
13673;DHT22;6909;52.202;9.876;2023-09-19T13:43:33;20.00;1.00
13673;DHT22;6909;52.202;9.876;2023-09-19T13:46:00;20.00;1.00
13673;DHT22;6909;52.202;9.876;2023-09-19T13:48:27;19.90;1.00
13673;DHT22;6909;52.202;9.876;2023-09-19T13:50:55;20.00;1.00
13673;DHT22;6909;52.202;9.876;2023-09-19T13:53:22;19.90;1.00
13673;DHT22;6909;52.202;9.876;2023-09-19T13:55:48;19.90;1.00
13673;DHT22;6909;52.202;9.876;2023-09-19T13:58:17;19.90;1.00
13673;DHT22;6909;52.202;9.876;2023-09-19T14:00:43;19.90;1.00
13673;DHT22;6909;52.202;9.876;2023-09-19T14:03:10;19.80;1.00
13673;DHT22;6909;52.202;9.876;2023-09-19T14:05:37;19.60;1.00
13673;DHT22;6909;52.202;9.876;2023-09-19T14:08:05;19.70;1.00
13673;DHT22;6909;52.202;9.876;2023-09-19T14:10:32;19.90;1.00
13673;DHT22;6909;52.202;9.876;2023-09-19T14:13:00;19.80;1.00
13673;DHT22;6909;52.202;9.876;2023-09-19T14:15:28;19.70;1.00
13673;DHT22;6909;52.202;9.876;2023-09-19T14:18:00;19.50;1.00
13673;DHT22;6909;52.202;9.876;2023-09-19T14:20:27;19.60;1.00
13673;DHT22;6909;52.202;9.876;2023-09-19T14:22:54;19.50;1.00
13673;DHT22;6909;52.202;9.876;2023-09-19T14:25:21;19.50;1.00
13673;DHT22;6909;52.202;9.876;2023-09-19T14:27:48;19.60;1.00
13673;DHT22;6909;52.202;9.876;2023-09-19T14:30:15;19.80;1.00
13673;DHT22;6909;52.202;9.876;2023-09-19T14:32:43;19.70;1.00
13673;DHT22;6909;52.202;9.876;2023-09-19T14:35:10;19.70;1.00
13673;DHT22;6909;52.202;9.876;2023-09-19T14:37:40;19.70;1.00
13673;DHT22;6909;52.202;9.876;2023-09-19T14:40:08;19.60;1.00
13673;DHT22;6909;52.202;9.876;2023-09-19T14:42:36;19.50;1.00
13673;DHT22;6909;52.202;9.876;2023-09-19T14:45:04;19.50;1.00
13673;DHT22;6909;52.202;9.876;2023-09-19T14:47:33;19.50;1.00
13673;DHT22;6909;52.202;9.876;2023-09-19T14:50:01;19.70;1.00
13673;DHT22;6909;52.202;9.876;2023-09-19T14:52:32;19.70;1.00
13673;DHT22;6909;52.202;9.876;2023-09-19T14:54:59;19.80;1.00
13673;DHT22;6909;52.202;9.876;2023-09-19T14:57:26;19.90;1.00
13673;DHT22;6909;52.202;9.876;2023-09-19T14:59:52;20.00;1.00
13673;DHT22;6909;52.202;9.876;2023-09-19T15:02:19;20.00;1.00
13673;DHT22;6909;52.202;9.876;2023-09-19T15:04:46;20.00;1.00
13673;DHT22;6909;52.202;9.876;2023-09-19T15:07:15;19.90;1.00
13673;DHT22;6909;52.202;9.876;2023-09-19T15:09:42;19.80;1.00
13673;DHT22;6909;52.202;9.876;2023-09-19T15:12:09;19.80;1.00
13673;DHT22;6909;52.202;9.876;2023-09-19T15:14:39;19.80;1.00
13673;DHT22;6909;52.202;9.876;2023-09-19T15:17:06;19.80;1.00
13673;DHT22;6909;52.202;9.876;2023-09-19T15:19:33;19.80;1.00
13673;DHT22;6909;52.202;9.876;2023-09-19T15:22:00;19.80;1.00
13673;DHT22;6909;52.202;9.876;2023-09-19T15:24:28;19.80;1.00
13673;DHT22;6909;52.202;9.876;2023-09-19T15:26:55;19.80;1.00
13673;DHT22;6909;52.202;9.876;2023-09-19T15:29:22;19.80;1.00
13673;DHT22;6909;52.202;9.876;2023-09-19T15:31:49;19.90;1.00
13673;DHT22;6909;52.202;9.876;2023-09-19T15:34:16;19.80;1.00
13673;DHT22;6909;52.202;9.876;2023-09-19T15:36:42;19.90;1.00
13673;DHT22;6909;52.202;9.876;2023-09-19T15:39:10;19.90;1.00
13673;DHT22;6909;52.202;9.876;2023-09-19T15:41:39;20.00;1.00
13673;DHT22;6909;52.202;9.876;2023-09-19T15:44:11;20.00;1.00
13673;DHT22;6909;52.202;9.876;2023-09-19T15:46:39;20.10;1.00
13673;DHT22;6909;52.202;9.876;2023-09-19T15:49:06;20.10;1.00
13673;DHT22;6909;52.202;9.876;2023-09-19T15:51:34;20.20;1.00
13673;DHT22;6909;52.202;9.876;2023-09-19T15:54:07;20.30;1.00
13673;DHT22;6909;52.202;9.876;2023-09-19T15:56:34;20.10;1.00
13673;DHT22;6909;52.202;9.876;2023-09-19T15:59:03;20.10;1.00
13673;DHT22;6909;52.202;9.876;2023-09-19T16:06:42;19.90;1.00
13673;DHT22;6909;52.202;9.876;2023-09-19T16:09:09;19.70;1.00
13673;DHT22;6909;52.202;9.876;2023-09-19T16:11:36;19.60;1.00
13673;DHT22;6909;52.202;9.876;2023-09-19T16:14:05;19.60;1.00
13673;DHT22;6909;52.202;9.876;2023-09-19T16:16:33;19.60;1.00
13673;DHT22;6909;52.202;9.876;2023-09-19T16:19:04;19.50;1.00
13673;DHT22;6909;52.202;9.876;2023-09-19T16:21:36;19.40;1.00
13673;DHT22;6909;52.202;9.876;2023-09-19T16:24:06;19.40;1.00
13673;DHT22;6909;52.202;9.876;2023-09-19T16:26:34;19.50;1.00